createdAt,value
2019-04-21T00:01:57.838Z,100582.45
2019-04-21T00:04:40.579Z,100576.32
2019-04-21T00:07:33.211Z,100579.30
2019-04-21T00:12:18.281Z,100578.20
2019-04-21T00:14:39.540Z,100580.70
2019-04-21T00:17:05.860Z,100580.64
2019-04-21T00:19:33.975Z,100577.10
2019-04-21T00:22:13.871Z,100567.61
2019-04-21T00:24:45.668Z,100562.45
2019-04-21T00:27:22.941Z,100567.61
2019-04-21T00:29:51.974Z,100563.64
2019-04-21T00:32:21.815Z,100560.53
2019-04-21T00:34:36.388Z,100559.02
2019-04-21T00:37:15.677Z,100557.84
2019-04-21T00:40:02.229Z,100568.11
2019-04-21T00:42:26.050Z,100565.80
2019-04-21T00:44:51.947Z,100567.02
2019-04-21T00:47:30.301Z,100560.50
2019-04-21T00:50:00.824Z,100558.31
2019-04-21T00:55:23.419Z,100566.05
2019-04-21T00:57:45.265Z,100571.22
2019-04-21T01:00:13.727Z,100564.28
2019-04-21T01:02:45.530Z,100560.08
2019-04-21T01:05:16.698Z,100556.33
2019-04-21T01:07:41.989Z,100554.72
2019-04-21T01:10:06.321Z,100549.66
2019-04-21T01:12:43.445Z,100547.03
2019-04-21T01:15:18.317Z,100551.33
2019-04-21T01:17:46.272Z,100549.23
2019-04-21T01:20:10.532Z,100542.77
2019-04-21T01:22:26.853Z,100541.27
2019-04-21T01:25:04.319Z,100542.92
2019-04-21T01:27:50.844Z,100554.36
2019-04-21T01:30:20.763Z,100543.24
2019-04-21T01:32:49.408Z,100546.36
2019-04-21T01:35:21.171Z,100548.05
2019-04-21T01:38:00.083Z,100545.07
2019-04-21T01:40:22.903Z,100542.06
2019-04-21T01:42:52.938Z,100540.29
2019-04-21T01:45:20.047Z,100541.96
2019-04-21T01:47:46.248Z,100534.63
2019-04-21T01:50:18.411Z,100539.37
2019-04-21T01:52:56.042Z,100526.84
2019-04-21T01:55:43.120Z,100532.06
2019-04-21T01:58:09.765Z,100528.06
2019-04-21T02:00:56.862Z,100532.75
2019-04-21T02:03:54.527Z,100527.97
2019-04-21T02:06:13.678Z,100527.41
2019-04-21T02:08:34.611Z,100528.95
2019-04-21T02:13:35.174Z,100521.70
2019-04-21T02:16:06.518Z,100516.98
2019-04-21T02:18:33.333Z,100524.72
2019-04-21T02:20:55.430Z,100522.36
2019-04-21T02:26:10.124Z,100516.35
2019-04-21T02:28:50.454Z,100508.54
2019-04-21T02:33:55.837Z,100520.59
2019-04-21T02:36:51.406Z,100525.13
2019-04-21T02:39:00.238Z,100527.66
2019-04-21T02:41:18.766Z,100531.58
2019-04-21T02:43:54.319Z,100530.98
2019-04-21T02:46:27.443Z,100531.91
2019-04-21T02:48:56.444Z,100527.97
2019-04-21T02:51:30.852Z,100530.55
2019-04-21T02:54:28.892Z,100531.38
2019-04-21T02:56:29.796Z,100524.86
2019-04-21T03:04:13.247Z,100530.44
2019-04-21T03:07:01.635Z,100526.89
2019-04-21T03:09:43.222Z,100522.91
2019-04-21T03:12:05.526Z,100516.16
2019-04-21T03:14:35.961Z,100518.31
2019-04-21T03:16:57.677Z,100518.11
2019-04-21T03:19:36.480Z,100517.81
2019-04-21T03:22:06.662Z,100518.62
2019-04-21T03:24:39.923Z,100523.39
2019-04-21T03:27:10.404Z,100522.91
2019-04-21T03:29:36.708Z,100520.48
2019-04-21T03:35:02.483Z,100519.70
2019-04-21T03:37:14.062Z,100517.48
2019-04-21T03:39:37.229Z,100516.56
2019-04-21T03:44:32.220Z,100522.61
2019-04-21T03:47:10.946Z,100512.52
2019-04-21T03:49:45.466Z,100512.14
2019-04-21T03:52:11.510Z,100513.54
2019-04-21T03:54:37.377Z,100510.37
2019-04-21T03:59:38.456Z,100506.45
2019-04-21T04:02:23.092Z,100504.95
2019-04-21T04:10:08.369Z,100503.31
2019-04-21T04:12:34.393Z,100500.73
2019-04-21T04:15:15.783Z,100495.05
2019-04-21T04:17:36.371Z,100503.31
2019-04-21T04:20:06.137Z,100497.36
2019-04-21T04:22:41.624Z,100499.56
2019-04-21T04:27:54.036Z,100509.83
2019-04-21T04:30:12.459Z,100504.70
2019-04-21T04:32:46.849Z,100502.97
2019-04-21T04:35:14.473Z,100503.02
2019-04-21T04:37:51.073Z,100501.45
2019-04-21T04:40:13.686Z,100507.17
2019-04-21T04:43:07.818Z,100507.21
2019-04-21T04:45:28.274Z,100499.16
2019-04-21T04:47:49.891Z,100498.84
2019-04-21T04:50:24.450Z,100496.78
2019-04-21T04:53:07.422Z,100491.61
2019-04-21T04:55:19.082Z,100492.11
2019-04-21T05:00:25.847Z,100502.19
2019-04-21T05:08:16.515Z,100490.55
2019-04-21T05:10:31.469Z,100489.37
2019-04-21T05:20:20.197Z,100485.34
2019-04-21T05:22:47.408Z,100485.41
2019-04-21T05:25:10.987Z,100478.50
2019-04-21T05:27:40.551Z,100473.33
2019-04-21T05:30:24.803Z,100470.75
2019-04-21T05:32:52.520Z,100466.45
2019-04-21T05:35:40.542Z,100469.92
2019-04-21T05:38:10.227Z,100466.02
2019-04-21T05:40:34.743Z,100455.66
2019-04-21T05:43:09.200Z,100457.81
2019-04-21T05:45:46.040Z,100460.38
2019-04-21T05:50:44.126Z,100459.91
2019-04-21T05:53:25.374Z,100460.75
2019-04-21T05:55:50.240Z,100468.02
2019-04-21T05:58:11.270Z,100465.30
2019-04-21T06:03:30.727Z,100471.58
2019-04-21T06:06:08.595Z,100474.48
2019-04-21T06:08:32.917Z,100470.91
2019-04-21T06:11:00.176Z,100466.82
2019-04-21T06:13:41.016Z,100462.86
2019-04-21T06:16:03.899Z,100463.67
2019-04-21T06:21:06.944Z,100459.50
2019-04-21T06:23:36.036Z,100463.28
2019-04-21T06:26:19.303Z,100458.28
2019-04-21T06:33:39.423Z,100461.29
2019-04-21T06:39:00.338Z,100445.75
2019-04-21T06:41:26.665Z,100440.73
2019-04-21T06:43:56.325Z,100441.81
2019-04-21T06:46:25.857Z,100445.18
2019-04-21T06:48:55.948Z,100434.81
2019-04-21T06:51:23.938Z,100429.23
2019-04-21T06:53:59.535Z,100431.89
2019-04-21T06:56:24.029Z,100429.31
2019-04-21T06:58:53.489Z,100430.21
2019-04-21T07:01:25.231Z,100432.86
2019-04-21T07:03:58.428Z,100435.27
2019-04-21T07:06:23.810Z,100427.80
2019-04-21T07:09:02.908Z,100424.08
2019-04-21T07:11:18.758Z,100428.58
2019-04-21T07:14:13.533Z,100421.78
2019-04-21T07:16:32.054Z,100417.72
2019-04-21T07:19:11.361Z,100412.46
2019-04-21T07:21:34.476Z,100410.78
2019-04-21T07:24:05.781Z,100401.08
2019-04-21T07:26:32.857Z,100401.08
2019-04-21T07:29:09.063Z,100400.83
2019-04-21T07:31:43.148Z,100395.11
2019-04-21T07:34:09.083Z,100397.20
2019-04-21T07:36:46.413Z,100393.19
2019-04-21T07:39:01.310Z,100388.69
2019-04-21T07:41:25.163Z,100385.78
2019-04-21T07:44:00.299Z,100386.66
2019-04-21T07:46:27.314Z,100387.79
2019-04-21T07:49:06.636Z,100386.75
2019-04-21T07:51:42.015Z,100380.59
2019-04-21T07:54:18.410Z,100378.87
2019-04-21T07:56:28.778Z,100377.86
2019-04-21T07:59:16.459Z,100372.09
2019-04-21T08:01:43.880Z,100374.36
2019-04-21T08:04:33.286Z,100363.88
2019-04-21T08:06:46.541Z,100358.75
2019-04-21T08:09:12.595Z,100364.04
2019-04-21T08:11:36.686Z,100356.38
2019-04-21T08:14:19.511Z,100351.67
2019-04-21T08:16:49.966Z,100342.64
2019-04-21T08:19:13.085Z,100337.73
2019-04-21T08:21:55.879Z,100338.03
2019-04-21T08:24:18.166Z,100342.41
2019-04-21T08:26:53.110Z,100343.86
2019-04-21T08:29:29.723Z,100333.72
2019-04-21T08:31:59.105Z,100334.36
2019-04-21T08:34:22.667Z,100333.52
2019-04-21T08:37:05.467Z,100321.22
2019-04-21T08:39:21.468Z,100311.70
2019-04-21T08:41:49.615Z,100315.78
2019-04-21T08:44:26.230Z,100307.12
2019-04-21T08:46:52.673Z,100305.14
2019-04-21T08:49:22.197Z,100303.55
2019-04-21T08:52:00.710Z,100306.99
2019-04-21T08:54:43.180Z,100305.11
2019-04-21T08:57:05.959Z,100312.32
2019-04-21T08:59:54.335Z,100311.52
2019-04-21T09:02:35.074Z,100303.00
2019-04-21T09:05:09.344Z,100298.50
2019-04-21T09:07:41.402Z,100297.66
2019-04-21T09:10:05.564Z,100293.63
2019-04-21T09:12:34.716Z,100285.05
2019-04-21T09:15:08.609Z,100283.64
2019-04-21T09:17:28.672Z,100278.73
2019-04-21T09:20:13.783Z,100275.30
2019-04-21T09:22:37.831Z,100273.02
2019-04-21T09:25:03.421Z,100266.61
2019-04-21T09:27:33.600Z,100257.91
2019-04-21T09:29:54.037Z,100259.36
2019-04-21T09:32:23.849Z,100252.27
2019-04-21T09:34:51.312Z,100252.77
2019-04-21T09:37:32.763Z,100248.13
2019-04-21T09:39:53.573Z,100246.13
2019-04-21T09:42:21.899Z,100247.77
2019-04-21T09:44:55.604Z,100241.13
2019-04-21T09:47:24.553Z,100235.23
2019-04-21T09:49:51.948Z,100228.91
2019-04-21T09:52:25.708Z,100225.16
2019-04-21T09:55:01.171Z,100221.08
2019-04-21T09:57:32.751Z,100205.55
2019-04-21T10:00:02.186Z,100201.33
2019-04-21T10:02:34.179Z,100193.03
2019-04-21T10:04:52.778Z,100194.34
2019-04-21T10:07:28.174Z,100192.13
2019-04-21T10:09:52.426Z,100188.97
2019-04-21T10:12:21.073Z,100180.17
2019-04-21T10:14:49.630Z,100180.23
2019-04-21T10:17:19.898Z,100172.44
2019-04-21T10:19:48.578Z,100180.86
2019-04-21T10:22:17.163Z,100173.55
2019-04-21T10:24:46.739Z,100174.48
2019-04-21T10:27:16.982Z,100164.85
2019-04-21T10:29:47.241Z,100167.84
2019-04-21T10:32:18.633Z,100159.55
2019-04-21T10:34:47.518Z,100156.52
2019-04-21T10:37:16.690Z,100157.39
2019-04-21T10:39:45.487Z,100139.80
2019-04-21T10:42:15.374Z,100137.23
2019-04-21T10:44:45.156Z,100130.53
2019-04-21T10:47:14.470Z,100128.94
2019-04-21T10:49:44.614Z,100126.30
2019-04-21T10:52:15.335Z,100123.68
2019-04-21T10:55:07.105Z,100120.06
2019-04-21T10:57:16.798Z,100111.20
2019-04-21T10:59:47.965Z,100118.77
2019-04-21T11:02:39.106Z,100115.16
2019-04-21T11:05:09.072Z,100112.72
2019-04-21T11:07:59.379Z,100116.62
2019-04-21T11:10:16.209Z,100113.44
2019-04-21T11:12:47.591Z,100113.41
2019-04-21T11:15:15.131Z,100109.08
2019-04-21T11:17:45.120Z,100112.83
2019-04-21T11:20:15.062Z,100110.30
2019-04-21T11:22:43.913Z,100112.00
2019-04-21T11:25:12.924Z,100106.44
2019-04-21T11:27:42.912Z,100107.53
2019-04-21T11:30:11.759Z,100104.33
2019-04-21T11:32:42.122Z,100103.17
2019-04-21T11:35:10.696Z,100092.72
2019-04-21T11:37:39.905Z,100092.17
2019-04-21T11:40:11.390Z,100087.68
2019-04-21T11:42:41.898Z,100092.75
2019-04-21T11:45:22.097Z,100089.34
2019-04-21T11:47:52.469Z,100091.80
2019-04-21T11:50:21.167Z,100081.46
2019-04-21T11:52:49.737Z,100077.80
2019-04-21T11:55:18.751Z,100076.74
2019-04-21T11:57:49.589Z,100071.80
2019-04-21T12:00:17.813Z,100071.09
2019-04-21T12:02:47.671Z,100071.37
2019-04-21T12:05:17.333Z,100063.20
2019-04-21T12:07:47.184Z,100062.06
2019-04-21T12:10:15.831Z,100049.81
2019-04-21T12:12:45.399Z,100044.28
2019-04-21T12:15:14.333Z,100043.28
2019-04-21T12:17:43.997Z,100046.80
2019-04-21T12:20:13.133Z,100040.34
2019-04-21T12:22:43.216Z,100036.28
2019-04-21T12:25:13.619Z,100031.15
2019-04-21T12:27:43.778Z,100028.11
2019-04-21T12:30:15.665Z,100024.38
2019-04-21T12:32:55.962Z,100013.27
2019-04-21T12:35:26.011Z,100008.40
2019-04-21T12:37:55.006Z,100017.36
2019-04-21T12:40:24.850Z,100003.40
2019-04-21T12:42:54.788Z,99996.92
2019-04-21T12:45:24.029Z,99997.16
2019-04-21T12:47:53.891Z,99993.71
2019-04-21T12:50:23.623Z,99996.84
2019-04-21T12:52:53.584Z,99988.68
2019-04-21T12:55:30.527Z,99987.84
2019-04-21T12:57:55.399Z,99974.58
2019-04-21T13:00:24.826Z,99981.69
2019-04-21T13:02:53.995Z,99977.75
2019-04-21T13:05:22.730Z,99967.20
2019-04-21T13:07:51.389Z,99967.92
2019-04-21T13:10:20.509Z,99964.60
2019-04-21T13:12:52.273Z,99950.47
2019-04-21T13:15:21.843Z,99951.79
2019-04-21T13:17:50.436Z,99946.19
2019-04-21T13:20:19.348Z,99953.94
2019-04-21T13:22:54.321Z,99950.92
2019-04-21T13:25:23.582Z,99948.26
2019-04-21T13:27:52.443Z,99954.15
2019-04-21T13:30:22.306Z,99951.91
2019-04-21T13:32:53.654Z,99953.44
2019-04-21T13:35:23.293Z,99948.86
2019-04-21T13:37:52.374Z,99949.97
2019-04-21T13:40:53.367Z,99947.34
2019-04-21T13:43:10.704Z,99944.71
2019-04-21T13:45:39.572Z,99945.36
2019-04-21T13:48:08.436Z,99939.77
2019-04-21T13:50:37.364Z,99942.07
2019-04-21T13:53:06.909Z,99935.84
2019-04-21T13:55:38.941Z,99937.48
2019-04-21T13:58:08.729Z,99935.81
2019-04-21T14:00:37.981Z,99938.41
2019-04-21T14:03:10.449Z,99937.34
2019-04-21T14:05:40.265Z,99939.20
2019-04-21T14:08:09.354Z,99933.81
2019-04-21T14:11:11.292Z,99935.17
2019-04-21T14:14:16.560Z,99932.75
2019-04-21T14:17:22.486Z,99933.01
2019-04-21T14:20:10.935Z,99922.08
2019-04-21T14:23:27.763Z,99920.92
2019-04-21T14:26:06.475Z,99918.63
2019-04-21T14:29:11.363Z,99921.09
2019-04-21T14:32:00.087Z,99921.69
2019-04-21T14:35:04.968Z,99911.39
2019-04-21T14:37:56.533Z,99903.26
2019-04-21T14:41:02.197Z,99897.73
2019-04-21T14:43:50.505Z,99894.69
2019-04-21T14:46:57.455Z,99895.41
2019-04-21T14:50:05.105Z,99893.62
2019-04-21T14:53:15.867Z,99892.84
2019-04-21T14:56:04.102Z,99887.01
2019-04-21T14:59:09.165Z,99885.60
2019-04-21T15:01:57.918Z,99881.03
2019-04-21T15:05:04.023Z,99880.55
2019-04-21T15:07:53.183Z,99876.38
2019-04-21T15:10:58.867Z,99876.98
2019-04-21T15:13:48.030Z,99872.79
2019-04-21T15:16:52.976Z,99869.73
2019-04-21T15:19:42.826Z,99864.69
2019-04-21T15:22:48.309Z,99864.19
2019-04-21T15:25:36.633Z,99861.86
2019-04-21T15:28:42.543Z,99859.13
2019-04-21T15:31:34.515Z,99856.78
2019-04-21T15:34:38.224Z,99859.90
2019-04-21T15:37:26.485Z,99859.14
2019-04-21T15:40:40.681Z,99855.81
2019-04-21T15:43:22.399Z,99853.35
2019-04-21T15:46:29.143Z,99849.97
2019-04-21T15:49:17.607Z,99853.11
2019-04-21T15:52:22.368Z,99857.05
2019-04-21T15:55:12.589Z,99851.73
2019-04-21T15:58:28.432Z,99859.44
2019-04-21T16:04:36.812Z,99850.86
2019-04-21T16:07:42.354Z,99854.35
2019-04-21T16:10:39.134Z,99847.39
2019-04-21T16:13:37.332Z,99835.70
2019-04-21T16:16:28.324Z,99843.48
2019-04-21T16:19:33.338Z,99841.70
2019-04-21T16:22:21.449Z,99842.42
2019-04-21T16:25:26.739Z,99844.28
2019-04-21T16:28:15.427Z,99846.04
2019-04-21T16:31:20.425Z,99842.23
2019-04-21T16:34:09.287Z,99845.05
2019-04-21T16:37:17.439Z,99844.67
2019-04-21T16:40:05.681Z,99848.52
2019-04-21T16:43:10.501Z,99854.58
2019-04-21T16:45:59.076Z,99857.67
2019-04-21T16:49:04.161Z,99850.08
2019-04-21T16:55:19.075Z,99845.26
2019-04-21T16:58:34.781Z,99857.41
2019-04-21T17:01:29.760Z,99860.07
2019-04-21T17:04:34.285Z,99863.03
2019-04-21T17:07:24.051Z,99868.22
2019-04-21T17:10:29.022Z,99864.50
2019-04-21T17:13:18.254Z,99868.92
2019-04-21T17:19:20.205Z,99871.32
2019-04-21T17:22:19.607Z,99873.50
2019-04-21T17:28:09.829Z,99876.02
2019-04-21T17:31:18.180Z,99875.59
2019-04-21T17:34:10.392Z,99875.73
2019-04-21T17:37:15.223Z,99883.16
2019-04-21T17:40:05.635Z,99879.81
2019-04-21T17:43:14.361Z,99883.84
2019-04-21T17:45:59.940Z,99882.46
2019-04-21T17:49:05.231Z,99887.02
2019-04-21T17:52:00.496Z,99890.59
2019-04-21T17:55:11.469Z,99888.57
2019-04-21T17:58:09.710Z,99892.58
2019-04-21T18:01:32.277Z,99888.62
2019-04-21T18:07:45.321Z,99889.38
2019-04-21T18:10:27.711Z,99902.80
2019-04-21T18:13:19.214Z,99906.90
2019-04-21T18:16:19.188Z,99903.14
2019-04-21T18:19:12.980Z,99904.19
2019-04-21T18:22:06.502Z,99908.36
2019-04-21T18:25:27.120Z,99912.53
2019-04-21T18:28:00.761Z,99915.84
2019-04-21T18:31:07.090Z,99921.59
2019-04-21T18:34:02.171Z,99926.54
2019-04-21T18:37:32.107Z,99923.48
2019-04-21T18:40:21.133Z,99919.58
2019-04-21T18:44:02.822Z,99924.75
2019-04-21T18:49:44.327Z,99930.20
2019-04-21T18:53:08.997Z,99934.80
2019-04-21T18:55:55.743Z,99936.00
2019-04-21T18:58:54.184Z,99942.88
2019-04-21T19:01:51.441Z,99941.16
2019-04-21T19:04:53.639Z,99941.17
2019-04-21T19:07:55.859Z,99935.75
2019-04-21T19:11:10.318Z,99944.75
2019-04-21T19:18:05.363Z,99949.28
2019-04-21T19:23:11.557Z,99943.30
2019-04-21T19:26:11.315Z,99947.80
2019-04-21T19:29:19.449Z,99949.11
2019-04-21T19:32:01.708Z,99947.89
2019-04-21T19:34:52.572Z,99950.28
2019-04-21T19:37:44.018Z,99955.12
2019-04-21T19:40:56.862Z,99955.08
2019-04-21T19:43:52.361Z,99961.51
2019-04-21T19:47:00.033Z,99968.98
2019-04-21T19:49:49.954Z,99965.64
2019-04-21T19:52:47.275Z,99963.33
2019-04-21T19:55:25.700Z,99970.55
2019-04-21T19:58:33.814Z,99971.27
2019-04-21T20:01:21.360Z,99976.27
2019-04-21T20:04:34.355Z,99976.18
2019-04-21T20:07:26.149Z,99984.77
2019-04-21T20:10:39.609Z,99992.14
2019-04-21T20:13:40.583Z,99993.23
2019-04-21T20:16:37.556Z,99993.41
2019-04-21T20:19:11.739Z,99991.52
2019-04-21T20:22:14.712Z,99986.16
2019-04-21T20:25:09.861Z,100001.55
2019-04-21T20:28:21.346Z,100002.66
2019-04-21T20:31:18.869Z,100001.47
2019-04-21T20:34:28.282Z,100001.67
2019-04-21T20:37:18.603Z,100005.64
2019-04-21T20:40:05.345Z,100012.24
2019-04-21T20:43:12.446Z,100006.22
2019-04-21T20:46:12.550Z,100007.98
2019-04-21T20:48:59.991Z,99997.14
2019-04-21T20:52:17.306Z,99996.70
2019-04-21T20:54:56.831Z,99992.32
2019-04-21T20:57:57.769Z,99986.32
2019-04-21T21:01:07.411Z,99988.63
2019-04-21T21:03:58.045Z,99992.38
2019-04-21T21:06:54.164Z,99988.22
2019-04-21T21:10:00.422Z,99991.13
2019-04-21T21:16:03.767Z,99997.88
2019-04-21T21:21:48.563Z,99997.19
2019-04-21T21:24:49.022Z,99994.09
2019-04-21T21:27:41.795Z,99995.77
2019-04-21T21:30:32.319Z,99993.98
2019-04-21T21:33:50.739Z,99993.78
2019-04-21T21:36:33.457Z,100002.05
2019-04-21T21:42:34.359Z,100009.09
2019-04-21T21:45:45.144Z,100022.19
2019-04-21T21:48:40.690Z,100024.02
2019-04-21T21:51:42.908Z,100021.53
2019-04-21T21:54:22.157Z,100021.64
2019-04-21T21:57:28.325Z,100028.95
2019-04-21T22:00:17.555Z,100030.33
2019-04-21T22:03:31.767Z,100025.20
2019-04-21T22:06:19.152Z,100022.55
2019-04-21T22:09:22.023Z,100019.50
2019-04-21T22:12:11.014Z,100017.82
2019-04-21T22:15:19.758Z,100029.48
2019-04-21T22:18:27.302Z,100029.50
2019-04-21T22:21:35.110Z,100026.88
2019-04-21T22:24:09.198Z,100022.16
2019-04-21T22:27:09.682Z,100018.30
2019-04-21T22:30:01.407Z,100015.75
2019-04-21T22:33:08.534Z,100026.59
2019-04-21T22:36:02.274Z,100017.02
2019-04-21T22:39:20.821Z,100023.98
2019-04-21T22:42:00.916Z,100013.06
2019-04-21T22:44:56.642Z,100018.34
2019-04-21T22:47:46.530Z,100016.13
2019-04-21T22:50:51.019Z,100010.98
2019-04-21T22:53:43.686Z,100012.25
2019-04-21T22:56:56.510Z,100004.11
2019-04-21T22:59:35.642Z,100009.71
2019-04-21T23:02:42.759Z,100000.25
2019-04-21T23:05:36.280Z,100006.30
2019-04-21T23:11:49.168Z,99997.21
2019-04-21T23:14:58.540Z,99993.77
2019-04-21T23:17:59.536Z,99987.30
2019-04-21T23:21:03.419Z,99990.30
2019-04-21T23:23:57.431Z,99985.57
2019-04-21T23:26:56.092Z,99986.39
2019-04-21T23:30:00.518Z,99987.30
2019-04-21T23:32:50.527Z,99993.77
2019-04-21T23:35:35.273Z,99999.39
2019-04-21T23:38:43.515Z,100004.59
2019-04-21T23:41:25.980Z,100004.16
2019-04-21T23:44:38.679Z,100000.27
2019-04-21T23:47:36.954Z,99996.81
2019-04-21T23:50:40.811Z,99991.66
2019-04-21T23:53:17.594Z,99994.26
2019-04-21T23:56:32.927Z,99996.84
2019-04-21T23:59:15.684Z,100002.89
